Wyandotte, Michigan
Current Conditions -  °F | °C
As of 5:34 PM on Monday 26 Jan 2015 (Local Time) from KONZ Reporting Station
Clear Clear  
Wind Chill: -7°   Ceiling: Unl
Heat Index: -7°   Visibility: 10mi
Dew Point: -13°   Wind: 3mph
Humidity: 63%   Direction: 100°E
Pressure: 29.92"   Gusts: NA
Location:  42.2°N, 83.15°W
Report Text: KONZ 262234Z AUTO 10003KT 10SM CLR M07/M13 A2992 RMK AO2
Loading
Personal Weather Stations






























Interactive Weather Map New forecast layout! Learn more

10-Day Weather Forecast

Advertisements
Track Severe Weather on mobile